Home > Products > Valid Products > TAF

000
FTUS43 KBIS 050331 AAC
TAFMOT
TAF AMD
KMOT 050331Z 0504/0524 34007KT 3SM BR OVC004
     FM051000 01010KT 4SM -SHRA BR OVC015
     FM051500 06010KT P6SM VCSH OVC015
     FM051900 06012KT P6SM VCSH BKN025 OVC050=



000
FTUS43 KBIS 050329 AAA
TAFDIK
TAF AMD
KDIK 050329Z 0503/0524 03008KT P6SM SCT008
      TEMPO 0503/0506 BKN008
     FM050600 05011KT 6SM -SHRA BR VCTS BKN010 OVC050CB
     FM051200 08012KT 5SM BR VCSH BKN006 OVC012
     FM051500 10014KT P6SM VCSH BKN015 OVC025
     FM051800 11016G24KT P6SM VCTS BKN025 OVC050CB=



000
FTUS43 KBIS 050301 AAB
TAFMOT
TAF AMD
KMOT 050301Z 0503/0524 34010KT P6SM OVC006
     FM051000 01010KT 4SM -SHRA BR OVC015
     FM051500 06010KT P6SM VCSH OVC015
     FM051900 06012KT P6SM VCSH BKN025 OVC050=



000
FTUS43 KBIS 050301 AAB
TAFMOT
TAF AMD
KMOT 050301Z 0503/0524 34010KT P6SM OVC006
     FM051000 01010KT 4SM -SHRA BR OVC015
     FM051500 06010KT P6SM VCSH OVC015
     FM051900 06012KT P6SM VCSH BKN025 OVC050=



000
FTUS43 KBIS 050219 AAA
TAFISN
TAF AMD
KISN 050219Z 0502/0524 03012KT P6SM OVC018
     FM050800 03011KT P6SM VCTS BKN018 OVC070CB
     FM051000 05014KT 4SM SHRA OVC012
     FM051700 08011KT P6SM SHRA BKN015
     FM052000 08015G22KT P6SM -SHRA VCTS BKN025 OVC050CB=



000
FTUS43 KBIS 050106 AAA
TAFMOT
TAF AMD
KMOT 050106Z 0501/0524 35012KT P6SM OVC015
     FM051000 01010KT 4SM -SHRA BR OVC015
     FM051500 06010KT P6SM VCSH OVC015
     FM051900 06012KT P6SM VCSH BKN025 OVC050=



000
FTUS43 KBIS 042333
TAFMOT
TAF
KMOT 042333Z 0500/0524 32015KT P6SM BKN025
     FM050200 35009KT P6SM BKN035
     FM051000 01010KT 4SM -SHRA BR OVC015
     FM051500 06010KT P6SM VCSH OVC015
     FM051900 06012KT P6SM VCSH BKN025 OVC050=



000
FTUS43 KBIS 042333
TAFJMS
TAF
KJMS 042333Z 0500/0524 09005KT P6SM SCT050
     FM050900 08007KT 3SM BR BKN003
     FM051300 05008KT 6SM BR BKN008
     FM051600 08010KT P6SM BKN015
     FM051900 12012KT P6SM VCTS BKN025 OVC050CB=



000
FTUS43 KBIS 042333
TAFBIS
TAF
KBIS 042333Z 0500/0524 VRB04KT P6SM SKC
     FM051000 03009KT 4SM BR BKN009
     FM051300 06008KT P6SM BKN015
     FM051600 09011KT P6SM VCSH SCT030 OVC100=



000
FTUS43 KBIS 042333
TAFDIK
TAF
KDIK 042333Z 0500/0524 03008KT P6SM SCT020
     FM050600 05011KT 6SM -SHRA BR BKN010 OVC050
     FM051200 08012KT 5SM BR VCSH BKN006 OVC012
     FM051500 10014KT P6SM VCSH BKN015 OVC025
     FM051800 11016G24KT P6SM VCTS BKN025 OVC050CB=



000
FTUS43 KBIS 042333
TAFISN
TAF
KISN 042333Z 0500/0524 04010KT P6SM SCT035
     FM050800 03011KT P6SM VCTS SCT025 BKN070CB
     FM051000 05014KT 4SM SHRA OVC010
     FM051700 08011KT P6SM SHRA BKN015
     FM052000 08015G22KT P6SM -SHRA VCTS BKN025 OVC050CB=



000
FTUS43 KBIS 042333
TAFMOT
TAF
KMOT 042333Z 0500/0524 32015KT P6SM BKN025
     FM050200 35009KT P6SM BKN035
     FM051000 01010KT 4SM -SHRA BR OVC015
     FM051500 06010KT P6SM VCSH OVC015
     FM051900 06012KT P6SM VCSH BKN025 OVC050=



000
FTUS43 KBIS 042333
TAFISN
TAF
KISN 042333Z 0500/0524 04010KT P6SM SCT035
     FM050800 03011KT P6SM VCTS SCT025 BKN070CB
     FM051000 05014KT 4SM SHRA OVC010
     FM051700 08011KT P6SM SHRA BKN015
     FM052000 08015G22KT P6SM -SHRA VCTS BKN025 OVC050CB=



000
FTUS43 KBIS 042333
TAFBIS
TAF
KBIS 042333Z 0500/0524 VRB04KT P6SM SKC
     FM051000 03009KT 4SM BR BKN009
     FM051300 06008KT P6SM BKN015
     FM051600 09011KT P6SM VCSH SCT030 OVC100=



000
FTUS43 KBIS 042333
TAFDIK
TAF
KDIK 042333Z 0500/0524 03008KT P6SM SCT020
     FM050600 05011KT 6SM -SHRA BR BKN010 OVC050
     FM051200 08012KT 5SM BR VCSH BKN006 OVC012
     FM051500 10014KT P6SM VCSH BKN015 OVC025
     FM051800 11016G24KT P6SM VCTS BKN025 OVC050CB=



000
FTUS43 KBIS 042333
TAFJMS
TAF
KJMS 042333Z 0500/0524 09005KT P6SM SCT050
     FM050900 08007KT 3SM BR BKN003
     FM051300 05008KT 6SM BR BKN008
     FM051600 08010KT P6SM BKN015
     FM051900 12012KT P6SM VCTS BKN025 OVC050CB=



000
FTUS43 KBIS 042046 AAB
TAFDIK
TAF AMD
KDIK 042046Z 0421/0518 36008KT P6SM BKN012
     FM042200 36008KT P6SM SCT015
     FM050100 03008KT P6SM FEW025
     FM050600 08011KT 4SM BR OVC007=



000
FTUS43 KBIS 042045 AAB
TAFISN
TAF AMD
KISN 042045Z 0421/0518 02013KT P6SM SCT025 BKN040
     FM050600 03009KT P6SM VCTS SCT025 BKN070CB
     FM050800 05011KT 4SM SHRA OVC010
     FM051700 08011KT P6SM SHRA BKN015=



000
FTUS43 KBIS 042045 AAB
TAFMOT
TAF AMD
KMOT 042045Z 0421/0518 30011KT P6SM BKN020
     FM042300 35012G19KT P6SM SCT025
     FM050700 03008KT 5SM BR BKN009
     FM051500 06010KT P6SM VCSH OVC015=



000
FTUS43 KBIS 041954 AAA
TAFDIK
TAF AMD
KDIK 041954Z 0420/0518 36008KT 6SM BR OVC007
     FM042200 36008KT P6SM SCT015
     FM050100 03008KT P6SM FEW025
     FM050600 08011KT 4SM BR OVC007=



000
FTUS43 KBIS 041954 AAA
TAFMOT
TAF AMD
KMOT 041954Z 0420/0518 01008KT P6SM BKN015
     FM042300 35012G19KT P6SM SCT020
     FM050700 03008KT 5SM BR BKN009
     FM051500 06010KT P6SM VCSH OVC015=



000
FTUS43 KBIS 041954 AAA
TAFISN
TAF AMD
KISN 041954Z 0420/0518 02013G20KT P6SM OVC025
     FM050600 03009KT P6SM VCTS SCT025 BKN070CB
     FM050800 05011KT 4SM SHRA OVC010
     FM051700 08011KT P6SM SHRA BKN015=



000
FTUS43 KBIS 041954 AAA
TAFBIS
TAF AMD
KBIS 041954Z 0420/0518 02005KT P6SM SCT040
     FM042200 36006KT P6SM SCT060
     FM051000 07009KT 4SM BR BKN015=



000
FTUS43 KBIS 041954 AAA
TAFJMS
TAF AMD
KJMS 041954Z 0420/0518 17009KT P6SM VCSH BKN060
     FM050100 09005KT P6SM SCT080
     FM050900 03007KT 5SM BR BKN003=



000
FTUS43 KBIS 041742
TAFBIS
TAF
KBIS 041742Z 0418/0518 05006KT P6SM VCSH OVC010
     FM042000 04008KT P6SM SCT030
     FM050200 06007KT P6SM SCT070
      TEMPO 0511/0513 4SM BR OVC010
     FM051300 06006KT P6SM OVC015=



000
FTUS43 KBIS 041742
TAFDIK
TAF
KDIK 041742Z 0418/0518 36007KT P6SM OVC007
     FM042100 07010KT P6SM BKN020
     FM050600 09009KT P6SM OVC010
     FM051200 09006KT 5SM -SHRA VCTS OVC010CB
      TEMPO 0512/0516 4SM SHRA BR OVC010=



000
FTUS43 KBIS 041742
TAFJMS
TAF
KJMS 041742Z 0418/0518 14011KT 4SM -TSRA BKN045CB
     FM042200 09010KT P6SM FEW035 SCT100
     FM051000 08009KT 3SM BR OVC010
     FM051600 10090KT P6SM SCT020=



000
FTUS43 KBIS 041742
TAFMOT
TAF
KMOT 041742Z 0418/0518 01011KT P6SM OVC012
     FM051500 03009KT P6SM VCTS OVC010CB=



000
FTUS43 KBIS 041742
TAFISN
TAF
KISN 041742Z 0418/0518 02010G20KT P6SM OVC020
     FM050900 04011KT P6SM VCSH OVC010
     FM051500 05009KT 5SM SHRA OVC010=



000
FTUS43 KBIS 041703 AAD
TAFBIS
TAF AMD
KBIS 041703Z 0417/0512 10007KT P6SM VCSH BKN015
     FM042100 04007KT P6SM SCT040
     FM050600 03005KT 5SM BR FEW180=



000
FTUS43 KBIS 041703 AAD
TAFBIS
TAF AMD
KBIS 041703Z 0417/0512 10007KT P6SM VCSH BKN015
     FM042100 04007KT P6SM SCT040
     FM050600 03005KT 5SM BR FEW180=



000
FTUS43 KBIS 041653 AAC
TAFDIK
TAF AMD
KDIK 041653Z 0417/0512 36007KT P6SM OVC007
     FM041800 06006KT P6SM BKN015
     FM042100 08010KT P6SM SCT040
     FM050700 05009KT 5SM BR BKN150=



000
FTUS43 KBIS 041653 AAC
TAFMOT
TAF AMD
KMOT 041653Z 0417/0512 36009KT P6SM BKN015
     FM041900 35009KT P6SM SCT040
     FM050700 02010KT 5SM BR BKN015=



000
FTUS43 KBIS 041507 AAB
TAFDIK
TAF AMD
KDIK 041507Z 0415/0512 36007KT P6SM VCSH BKN015
     FM041700 06006KT P6SM SCT040
     FM042300 08010KT P6SM SCT200
     FM050700 05009KT 5SM BR BKN150=



000
FTUS43 KBIS 041458 AAC
TAFJMS
TAF AMD
KJMS 041458Z 0415/0512 14008KT 6SM BR OVC006
     FM041600 16010KT 6SM -TSRA BKN015CB
      TEMPO 0416/0419 VRB15G25KT 2SM TSRA BKN012CB
     FM042000 18009KT P6SM VCTS SCT050CB
     FM042200 16010KT P6SM SCT050
     FM050800 11004KT 4SM BR SCT200=



000
FTUS43 KBIS 041428 AAB
TAFBIS
TAF AMD
KBIS 041428Z 0414/0512 35006KT P6SM BKN007
     FM041500 25007KT P6SM VCTS BKN015CB
     FM041700 34008KT 6SM -TSRA BKN050CB
     FM041900 04007KT P6SM SCT050
     FM050600 03005KT 5SM BR FEW180=



000
FTUS43 KBIS 041428 AAB
TAFJMS
TAF AMD
KJMS 041428Z 0414/0512 14008KT 6SM BR OVC006
     FM041600 16010KT 6SM -TSRA BKN015CB
     FM041800 15010KT 4SM -TSRA BKN035CB
     FM042000 18009KT P6SM VCTS SCT050CB
     FM042200 16010KT P6SM SCT050
     FM050800 11004KT 4SM BR SCT200=



000
FTUS43 KBIS 041428 AAA
TAFDIK
TAF AMD
KDIK 041428Z 0414/0512 36007KT 6SM -SHRA BR FEW015 BKN090
     FM041500 06008KT P6SM VCSH SCT090
     FM041700 06006KT P6SM SCT050
     FM042300 08010KT P6SM SCT200
     FM050700 05009KT 5SM BR BKN150=



000
FTUS43 KBIS 041428 AAB
TAFISN
TAF AMD
KISN 041428Z 0414/0512 05007KT P6SM VCSH BKN015
     FM041600 02011KT P6SM BKN025
     FM041900 03012KT P6SM SCT040
     FM050100 04011KT P6SM BKN150
     FM050600 03010KT 4SM -SHRA BR OVC050=



000
FTUS43 KBIS 041428 AAB
TAFMOT
TAF AMD
KMOT 041428Z 0414/0512 34011KT 6SM BR BKN008
     FM041500 36009KT P6SM VCTS BKN010CB
     FM041600 36009KT P6SM BKN030
     FM041800 35009KT P6SM VCTS SCT040CB BKN110
     FM042100 01011KT P6SM SCT040
     FM050700 02010KT 5SM BR BKN015=



000
FTUS43 KBIS 041428 AAB
TAFMOT
TAF AMD
KMOT 041428Z 0414/0512 34011KT 6SM BR BKN008
     FM041500 36009KT P6SM VCTS BKN010CB
     FM041600 36009KT P6SM BKN030
     FM041800 35009KT P6SM VCTS SCT040CB BKN110
     FM042100 01011KT P6SM SCT040
     FM050700 02010KT 5SM BR BKN015=



000
FTUS43 KBIS 041428 AAB
TAFJMS
TAF AMD
KJMS 041428Z 0414/0512 14008KT 6SM BR OVC006
     FM041600 16010KT 6SM -TSRA BKN015CB
     FM041800 15010KT 4SM -TSRA BKN035CB
     FM042000 18009KT P6SM VCTS SCT050CB
     FM042200 16010KT P6SM SCT050
     FM050800 11004KT 4SM BR SCT200=



000
FTUS43 KBIS 041428 AAB
TAFISN
TAF AMD
KISN 041428Z 0414/0512 05007KT P6SM VCSH BKN015
     FM041600 02011KT P6SM BKN025
     FM041900 03012KT P6SM SCT040
     FM050100 04011KT P6SM BKN150
     FM050600 03010KT 4SM -SHRA BR OVC050=



000
FTUS43 KBIS 041428 AAB
TAFBIS
TAF AMD
KBIS 041428Z 0414/0512 35006KT P6SM BKN007
     FM041500 25007KT P6SM VCTS BKN015CB
     FM041700 34008KT 6SM -TSRA BKN050CB
     FM041900 04007KT P6SM SCT050
     FM050600 03005KT 5SM BR FEW180=



000
FTUS43 KBIS 041428 AAA
TAFDIK
TAF AMD
KDIK 041428Z 0414/0512 36007KT 6SM -SHRA BR FEW015 BKN090
     FM041500 06008KT P6SM VCSH SCT090
     FM041700 06006KT P6SM SCT050
     FM042300 08010KT P6SM SCT200
     FM050700 05009KT 5SM BR BKN150=



000
FTUS43 KBIS 041253 AAA
TAFJMS
TAF AMD
KJMS 041253Z 0413/0512 13008KT 5SM BR VCTS BKN005 OVC040CB
     FM041500 14011KT 4SM -SHRA VCTS SCT015 BKN035CB
     FM041900 18011KT P6SM SCT060
     FM050000 13009KT P6SM SCT035 SCT090=



000
FTUS43 KBIS 041249 AAB
TAFBIS
TAF AMD
KBIS 041249Z 0413/0512 10007KT 6SM BR OVC007
     FM041500 09006KT P6SM VCSH SCT035 BKN100
     FM042300 08007KT P6SM FEW070 FEW120=



000
FTUS43 KBIS 041212 AAA
TAFISN
TAF AMD
KISN 041212Z 0412/0512 36013G18KT P6SM -SHRA VCTS FEW030 BKN100CB
      TEMPO 0412/0415 5SM -TSRA FEW009 BKN050CB
     FM041500 02011KT P6SM VCSH BKN040
     FM041800 02010KT P6SM BKN045
     FM050300 03011KT P6SM VCSH BKN025 OVC040=



000
FTUS43 KBIS 041212 AAA
TAFISN
TAF AMD
KISN 041212Z 0412/0512 36013G18KT P6SM -SHRA VCTS FEW030 BKN100CB
      TEMPO 0412/0415 5SM -TSRA FEW009 BKN050CB
     FM041500 02011KT P6SM VCSH BKN040
     FM041800 02010KT P6SM BKN045
     FM050300 03011KT P6SM VCSH BKN025 OVC040=



000
FTUS43 KBIS 041211 AAA
TAFMOT
TAF AMD
KMOT 041211Z 0412/0512 31012G17KT 6SM BR OVC007
      TEMPO 0412/0415 2SM -TSRA OVC007CB
     FM041500 01011KT 5SM -SHRA BR BKN020 OVC035
     FM042100 01010KT P6SM SCT040
     FM050600 02009KT P6SM SCT010 BKN025=



000
FTUS43 KBIS 041211 AAA
TAFMOT
TAF AMD
KMOT 041211Z 0412/0512 31012G17KT 6SM BR OVC007
      TEMPO 0412/0415 2SM -TSRA OVC007CB
     FM041500 01011KT 5SM -SHRA BR BKN020 OVC035
     FM042100 01010KT P6SM SCT040
     FM050600 02009KT P6SM SCT010 BKN025=



000
FTUS43 KBIS 041147 CCA
TAFDIK
TAF COR
KDIK 041147Z 0412/0512 02011G17KT P6SM VCTS SCT007 BKN025CB OVC180
      TEMPO 0412/0415 3SM -SHRA BR BKN025 OVC140
     FM041500 04007KT P6SM VCSH SCT030 BKN110
     FM041900 09010KT P6SM SCT050 SCT120
     FM050100 06009KT P6SM SCT070
     FM050600 05008KT P6SM VCSH BKN020=



000
FTUS43 KBIS 041147 CCA
TAFDIK
TAF COR
KDIK 041147Z 0412/0512 02011G17KT P6SM VCTS SCT007 BKN025CB OVC180
      TEMPO 0412/0415 3SM -SHRA BR BKN025 OVC140
     FM041500 04007KT P6SM VCSH SCT030 BKN110
     FM041900 09010KT P6SM SCT050 SCT120
     FM050100 06009KT P6SM SCT070
     FM050600 05008KT P6SM VCSH BKN020=



000
FTUS43 KBIS 041120
TAFBIS
TAF
KBIS 041120Z 0412/0512 10007KT P6SM VCFG SCT007 BKN180
     FM041500 09006KT P6SM VCSH SCT035 BKN100
     FM042300 08007KT P6SM FEW070 FEW120=



000
FTUS43 KBIS 041120
TAFMOT
TAF
KMOT 041120Z 0412/0512 31012G17KT P6SM VCFG OVC007
      TEMPO 0412/0415 2SM -SHRA BKN015 OVC035
     FM041500 01011KT 5SM -SHRA BR BKN020 OVC035
     FM042100 01010KT P6SM SCT040
     FM050600 02009KT P6SM SCT010 BKN025=



000
FTUS43 KBIS 041120
TAFDIK
TAF
KDIK 041120Z 0412/0512 02011G17KT P6SM VCSH SCT007 BKN011 OVC180
      TEMPO 0412/0415 3SM -SHRA BR BKN025 OVC140
     FM041500 04007KT P6SM VCSH SCT030 BKN110
     FM041900 09010KT P6SM SCT050 SCT120
     FM050100 06009KT P6SM SCT070
     FM050600 05008KT P6SM VCSH BKN020=



000
FTUS43 KBIS 041120
TAFBIS
TAF
KBIS 041120Z 0412/0512 10007KT P6SM VCFG SCT007 BKN180
     FM041500 09006KT P6SM VCSH SCT035 BKN100
     FM042300 08007KT P6SM FEW070 FEW120=



000
FTUS43 KBIS 041120
TAFDIK
TAF
KDIK 041120Z 0412/0512 02011G17KT P6SM VCSH SCT007 BKN011 OVC180
      TEMPO 0412/0415 3SM -SHRA BR BKN025 OVC140
     FM041500 04007KT P6SM VCSH SCT030 BKN110
     FM041900 09010KT P6SM SCT050 SCT120
     FM050100 06009KT P6SM SCT070
     FM050600 05008KT P6SM VCSH BKN020=



000
FTUS43 KBIS 041120
TAFMOT
TAF
KMOT 041120Z 0412/0512 31012G17KT P6SM VCFG OVC007
      TEMPO 0412/0415 2SM -SHRA BKN015 OVC035
     FM041500 01011KT 5SM -SHRA BR BKN020 OVC035
     FM042100 01010KT P6SM SCT040
     FM050600 02009KT P6SM SCT010 BKN025=



000
FTUS43 KBIS 041120
TAFISN
TAF
KISN 041120Z 0412/0512 36013G18KT P6SM -SHRA VCTS FEW030 BKN100CB
     FM041500 02011KT P6SM VCSH BKN040
     FM041800 02010KT P6SM BKN045
     FM050300 03011KT P6SM VCSH BKN025 OVC040=



000
FTUS43 KBIS 041120
TAFISN
TAF
KISN 041120Z 0412/0512 36013G18KT P6SM -SHRA VCTS FEW030 BKN100CB
     FM041500 02011KT P6SM VCSH BKN040
     FM041800 02010KT P6SM BKN045
     FM050300 03011KT P6SM VCSH BKN025 OVC040=



000
FTUS43 KBIS 041120
TAFJMS
TAF
KJMS 041120Z 0412/0512 13008KT P6SM VCFG SCT004 BKN200
      TEMPO 0412/0415 2SM BR BKN004
     FM041500 14011KT 4SM -SHRA VCTS SCT015 BKN035CB
     FM041900 18011KT P6SM SCT060
     FM050000 13009KT P6SM SCT035 SCT090=



000
FTUS43 KBIS 041120
TAFJMS
TAF
KJMS 041120Z 0412/0512 13008KT P6SM VCFG SCT004 BKN200
      TEMPO 0412/0415 2SM BR BKN004
     FM041500 14011KT 4SM -SHRA VCTS SCT015 BKN035CB
     FM041900 18011KT P6SM SCT060
     FM050000 13009KT P6SM SCT035 SCT090=



000
FTUS43 KBIS 041052 AAB
TAFBIS
TAF AMD
KBIS 041052Z 0411/0506 07007KT P6SM VCFG SCT010 BKN180
     FM041500 09006KT P6SM VCSH SCT035 BKN100
     FM042300 08007KT P6SM FEW070 FEW120
      AMD NOT SKED=



000
FTUS43 KBIS 040945 AAB
TAFDIK
TAF AMD
KDIK 040945Z 0410/0506 36011G17KT P6SM VCSH SCT007 BKN011 OVC180
      TEMPO 0410/0414 3SM -SHRA BR BKN025 OVC140
     FM041500 04007KT P6SM VCSH SCT030 BKN110
     FM041900 09010KT P6SM SCT050 SCT120
     FM050100 06009KT P6SM SCT070=



000
FTUS43 KBIS 040945 AAA
TAFJMS
TAF AMD
KJMS 040945Z 0410/0506 13008KT P6SM SCT003 BKN200
      TEMPO 0410/0414 2SM BR BKN007
     FM041500 14011KT P6SM VCSH SCT030
     FM041900 18011KT P6SM SCT060
     FM050000 13009KT P6SM SCT035 SCT090=



000
FTUS43 KBIS 040944 AAA
TAFDIK
TAF AMD
KDIK 040944Z 0410/0506 36011KT P6SM VCSH SCT007 BKN011 OVC180
      TEMPO 0410/0414 3SM -SHRA BR BKN025 OVC140
     FM041500 04007KT P6SM VCSH SCT030 BKN110
     FM041900 09010KT P6SM SCT050 SCT120
     FM050100 06009KT P6SM SCT070=



000
FTUS43 KBIS 040943 AAA
TAFMOT
TAF AMD
KMOT 040943Z 0410/0506 31012G17KT P6SM VCFG SCT009 BKN020
      TEMPO 0410/0414 2SM -SHRA BR BKN007
     FM041400 01011KT 5SM -SHRA BR BKN020 OVC035
     FM042100 01010KT P6SM FEW018 FEW120=



000
FTUS43 KBIS 040942 AAA
TAFISN
TAF AMD
KISN 040942Z 0410/0506 36013G18KT P6SM -SHRA VCTS FEW030 BKN110CB
     FM041400 02011KT P6SM VCSH BKN040
     FM041800 02010KT P6SM BKN045
     FM050300 03011KT P6SM VCSH BKN025 OVC040=



000
FTUS43 KBIS 040941 AAA
TAFBIS
TAF AMD
KBIS 040941Z 0410/0506 13011KT P6SM BKN200
     FM041100 11006KT P6SM BKN150 OVC200
     FM041200 07007KT P6SM VCFG SCT010 BKN180
     FM041500 09006KT P6SM VCSH SCT035 BKN100
     FM042300 08007KT P6SM FEW070 FEW120=



000
FTUS43 KBIS 040550
TAFJMS
TAF
KJMS 040550Z 0406/0506 16010KT P6SM SCT220
     FM040900 13007KT 4SM BR SCT003 BKN020
      TEMPO 0410/0414 1SM BR BKN007
     FM041500 14011KT P6SM VCSH SCT030
     FM041900 18011KT P6SM SCT060
     FM050000 13009KT P6SM SCT035 SCT090=



000
FTUS43 KBIS 040550
TAFBIS
TAF
KBIS 040550Z 0406/0506 16011KT P6SM SCT150
     FM040800 10006KT P6SM SCT150 BKN200
     FM041100 07007KT P6SM VCFG SCT010 BKN180
     FM041500 09006KT P6SM VCSH SCT035 BKN100
     FM042300 08007KT P6SM FEW070 FEW120=



000
FTUS43 KBIS 040550
TAFMOT
TAF
KMOT 040550Z 0406/0506 33008KT P6SM FEW018 SCT200
     FM040900 32007KT P6SM VCFG SCT010 BKN020
      TEMPO 0410/0414 2SM -SHRA BR BKN015
     FM041400 01011KT 5SM -SHRA BR BKN020 OVC035
     FM042100 01010KT P6SM FEW018 FEW120=



000
FTUS43 KBIS 040550
TAFDIK
TAF
KDIK 040550Z 0406/0506 03008KT P6SM BKN200
     FM040900 02011KT 5SM BR VCSH SCT020 OVC180
     FM041100 01008KT 3SM -SHRA BR BKN025 OVC140
     FM041500 04007KT P6SM VCSH SCT030 BKN110
     FM041900 09010KT P6SM SCT050 SCT120
     FM050100 06009KT P6SM SCT070=



000
FTUS43 KBIS 040550
TAFJMS
TAF
KJMS 040550Z 0406/0506 16010KT P6SM SCT220
     FM040900 13007KT 4SM BR SCT003 BKN020
      TEMPO 0410/0414 1SM BR BKN007
     FM041500 14011KT P6SM VCSH SCT030
     FM041900 18011KT P6SM SCT060
     FM050000 13009KT P6SM SCT035 SCT090=



000
FTUS43 KBIS 040550
TAFISN
TAF
KISN 040550Z 0406/0506 36010KT P6SM VCSH SCT020 BKN035 OVC140
     FM040800 01013G18KT P6SM -SHRA VCTS SCT030 BKN045CB
     FM041400 02011KT P6SM VCSH BKN040
     FM041800 02010KT P6SM BKN045
     FM050300 03011KT P6SM VCSH BKN025 OVC040=



000
FTUS43 KBIS 040550
TAFDIK
TAF
KDIK 040550Z 0406/0506 03008KT P6SM BKN200
     FM040900 02011KT 5SM BR VCSH SCT020 OVC180
     FM041100 01008KT 3SM -SHRA BR BKN025 OVC140
     FM041500 04007KT P6SM VCSH SCT030 BKN110
     FM041900 09010KT P6SM SCT050 SCT120
     FM050100 06009KT P6SM SCT070=



000
FTUS43 KBIS 040550
TAFISN
TAF
KISN 040550Z 0406/0506 36010KT P6SM VCSH SCT020 BKN035 OVC140
     FM040800 01013G18KT P6SM -SHRA VCTS SCT030 BKN045CB
     FM041400 02011KT P6SM VCSH BKN040
     FM041800 02010KT P6SM BKN045
     FM050300 03011KT P6SM VCSH BKN025 OVC040=



000
FTUS43 KBIS 040550
TAFMOT
TAF
KMOT 040550Z 0406/0506 33008KT P6SM FEW018 SCT200
     FM040900 32007KT P6SM VCFG SCT010 BKN020
      TEMPO 0410/0414 2SM -SHRA BR BKN015
     FM041400 01011KT 5SM -SHRA BR BKN020 OVC035
     FM042100 01010KT P6SM FEW018 FEW120=



000
FTUS43 KBIS 040550
TAFBIS
TAF
KBIS 040550Z 0406/0506 16011KT P6SM SCT150
     FM040800 10006KT P6SM SCT150 BKN200
     FM041100 07007KT P6SM VCFG SCT010 BKN180
     FM041500 09006KT P6SM VCSH SCT035 BKN100
     FM042300 08007KT P6SM FEW070 FEW120=



000
FTUS43 KBIS 040329 AAB
TAFBIS
TAF AMD
KBIS 040329Z 0403/0424 18010KT P6SM SCT120
     FM040600 12012KT P6SM SCT150
     FM041500 05009KT P6SM -SHRA BKN050=



000
FTUS43 KBIS 040102 AAA
TAFBIS
TAF AMD
KBIS 040102Z 0401/0424 22010KT P6SM SCT080 BKN150
      TEMPO 0401/0403 -SHRA BKN080
     FM040300 12012KT P6SM SCT150
     FM041500 05009KT P6SM -SHRA BKN050=



000
FTUS43 KBIS 032338
TAFDIK
TAF
KDIK 032338Z 0400/0424 35005KT P6SM SCT250
     FM041200 35008KT P6SM -SHRA SCT050 BKN080=



000
FTUS43 KBIS 032338
TAFISN
TAF
KISN 032338Z 0400/0424 35009KT P6SM SCT120
     FM041000 01012KT P6SM -SHRA SCT030 OVC080
     FM041400 01015G19KT P6SM -SHRA BKN050=



000
FTUS43 KBIS 032338
TAFBIS
TAF
KBIS 032338Z 0400/0424 18013KT P6SM SCT050 BKN150
      TEMPO 0401/0403 -TSRA OVC050CB
     FM040300 12012KT P6SM SCT150
     FM041500 05009KT P6SM -SHRA BKN050=



000
FTUS43 KBIS 032338
TAFISN
TAF
KISN 032338Z 0400/0424 35009KT P6SM SCT120
     FM041000 01012KT P6SM -SHRA SCT030 OVC080
     FM041400 01015G19KT P6SM -SHRA BKN050=



000
FTUS43 KBIS 032338
TAFDIK
TAF
KDIK 032338Z 0400/0424 35005KT P6SM SCT250
     FM041200 35008KT P6SM -SHRA SCT050 BKN080=



000
FTUS43 KBIS 032338
TAFMOT
TAF
KMOT 032338Z 0400/0424 34006KT P6SM SCT250
     FM041500 36012KT P6SM -SHRA SCT030 BKN050=



000
FTUS43 KBIS 032338
TAFJMS
TAF
KJMS 032338Z 0400/0424 17014KT P6SM SCT150
     FM040300 15010KT P6SM SCT120
     FM041200 14008KT 5SM BR SCT010 BKN050
     FM041500 16013KT P6SM -SHRA BKN050=



000
FTUS43 KBIS 032338
TAFJMS
TAF
KJMS 032338Z 0400/0424 17014KT P6SM SCT150
     FM040300 15010KT P6SM SCT120
     FM041200 14008KT 5SM BR SCT010 BKN050
     FM041500 16013KT P6SM -SHRA BKN050=



000
FTUS43 KBIS 032338
TAFBIS
TAF
KBIS 032338Z 0400/0424 18013KT P6SM SCT050 BKN150
      TEMPO 0401/0403 -TSRA OVC050CB
     FM040300 12012KT P6SM SCT150
     FM041500 05009KT P6SM -SHRA BKN050=



000
FTUS43 KBIS 032338
TAFMOT
TAF
KMOT 032338Z 0400/0424 34006KT P6SM SCT250
     FM041500 36012KT P6SM -SHRA SCT030 BKN050=



000
FTUS43 KBIS 031723
TAFMOT
TAF
KMOT 031723Z 0318/0418 14010KT P6SM SCT012
     FM040300 VRB05KT P6SM SCT080
     FM041500 36012KT P6SM VCSH SCT030 BKN050=



000
FTUS43 KBIS 031723
TAFISN
TAF
KISN 031723Z 0318/0418 04010KT P6SM SCT150
     FM040000 36012KT P6SM BKN100
     FM040700 01012KT P6SM VCSH SCT030 OVC080
     FM041200 01015G19KT P6SM -RA BKN030=



000
FTUS43 KBIS 031723
TAFDIK
TAF
KDIK 031723Z 0318/0418 27008KT P6SM SKC
     FM040000 01006KT P6SM SCT150
     FM041200 35008KT P6SM VCSH SCT050 BKN080=



000
FTUS43 KBIS 031723
TAFBIS
TAF
KBIS 031723Z 0318/0418 17011KT P6SM SKC
     FM032200 18013KT P6SM SCT100
     FM041200 11007KT P6SM VCSH BKN030=



000
FTUS43 KBIS 031723
TAFJMS
TAF
KJMS 031723Z 0318/0418 16015G22KT P6SM SKC
     FM040300 15010KT P6SM SCT120
     FM041200 14008KT 5SM BR SCT010 BKN030
     FM041500 16013KT P6SM VCSH BKN030=



000
FTUS43 KBIS 031723
TAFMOT
TAF
KMOT 031723Z 0318/0418 14010KT P6SM SCT012
     FM040300 VRB05KT P6SM SCT080
     FM041500 36012KT P6SM VCSH SCT030 BKN050=



000
FTUS43 KBIS 031723
TAFISN
TAF
KISN 031723Z 0318/0418 04010KT P6SM SCT150
     FM040000 36012KT P6SM BKN100
     FM040700 01012KT P6SM VCSH SCT030 OVC080
     FM041200 01015G19KT P6SM -RA BKN030=



000
FTUS43 KBIS 031723
TAFBIS
TAF
KBIS 031723Z 0318/0418 17011KT P6SM SKC
     FM032200 18013KT P6SM SCT100
     FM041200 11007KT P6SM VCSH BKN030=



000
FTUS43 KBIS 031723
TAFDIK
TAF
KDIK 031723Z 0318/0418 27008KT P6SM SKC
     FM040000 01006KT P6SM SCT150
     FM041200 35008KT P6SM VCSH SCT050 BKN080=



000
FTUS43 KBIS 031723
TAFJMS
TAF
KJMS 031723Z 0318/0418 16015G22KT P6SM SKC
     FM040300 15010KT P6SM SCT120
     FM041200 14008KT 5SM BR SCT010 BKN030
     FM041500 16013KT P6SM VCSH BKN030=



000
FTUS43 KBIS 031600 AAC
TAFMOT
TAF AMD
KMOT 031600Z 0316/0412 14010KT P6SM SCT015
     FM031800 16013KT P6SM FEW120
     FM040300 VRB05KT P6SM SCT080
     FM040800 34008KT P6SM VCSH SCT050 BKN080=



000
FTUS43 KBIS 031600 AAC
TAFMOT
TAF AMD
KMOT 031600Z 0316/0412 14010KT P6SM SCT015
     FM031800 16013KT P6SM FEW120
     FM040300 VRB05KT P6SM SCT080
     FM040800 34008KT P6SM VCSH SCT050 BKN080=



000
FTUS43 KBIS 031537 AAA
TAFISN
TAF AMD
KISN 031537Z 0316/0412 02012KT P6SM SCT150
     FM032100 34012KT P6SM SCT080
     FM040300 36014KT P6SM SCT050 BKN080
     FM040700 01012KT P6SM VCSH SCT035 BKN050 OVC080=



000
FTUS43 KBIS 031536 AAB
TAFJMS
TAF AMD
KJMS 031536Z 0316/0412 15012KT P6SM SCT012
     FM031800 17016KT P6SM SKC
     FM040300 15010KT P6SM SCT080
     FM040800 14007KT 5SM BR SCT010=



000
FTUS43 KBIS 031504 AAA
TAFJMS
TAF AMD
KJMS 031504Z 0315/0412 15012KT 6SM BR SCT012
      TEMPO 0315/0316 5SM BR BKN009
     FM031800 17016KT P6SM SKC
     FM040300 15010KT P6SM SCT080
     FM040800 14007KT 5SM BR SCT010=



000
FTUS43 KBIS 031500 AAB
TAFMOT
TAF AMD
KMOT 031500Z 0315/0412 14010KT 5SM BR BKN010
     FM031800 16013KT P6SM FEW120
     FM040300 VRB05KT P6SM SCT080
     FM040800 34008KT P6SM VCSH SCT050 BKN080=



000
FTUS43 KBIS 031352 AAC
TAFBIS
TAF AMD
KBIS 031352Z 0314/0412 10005KT 6SM BR SKC
     FM031500 14008KT P6SM SKC
     FM031800 17013KT P6SM SKC
     FM040300 14008KT P6SM SCT080=



000
FTUS43 KBIS 031251 AAB
TAFBIS
TAF AMD
KBIS 031251Z 0313/0412 10005KT 6SM BR SKC
      TEMPO 0313/0314 2SM BR
     FM031500 14008KT P6SM SKC
     FM031800 17013KT P6SM SKC
     FM040300 14008KT P6SM SCT080=



000
FTUS43 KBIS 031249 AAA
TAFMOT
TAF AMD
KMOT 031249Z 0313/0412 10006KT 2SM BR SCT005
      TEMPO 0313/0314 1/4SM FG BKN003
     FM031500 14010KT P6SM SCT030
     FM031800 16013KT P6SM FEW120
     FM040300 VRB05KT P6SM SCT080
     FM040800 34008KT P6SM VCSH SCT050 BKN080=



000
FTUS43 KBIS 031125
TAFJMS
TAF
KJMS 031125Z 0312/0412 14012KT 4SM BR OVC005
      TEMPO 0312/0314 2SM BR OVC003
     FM031500 15012KT P6SM SCT012
     FM031800 17016KT P6SM SKC
     FM040300 15010KT P6SM SCT080
     FM040800 14007KT 5SM BR SCT010=



000
FTUS43 KBIS 031125
TAFBIS
TAF
KBIS 031125Z 0312/0412 10005KT 4SM BR SKC
      TEMPO 0312/0314 2SM BR SCT006
     FM031500 14008KT P6SM SKC
     FM031800 17013KT P6SM SKC
     FM040300 14008KT P6SM SCT080=



000
FTUS43 KBIS 031125
TAFISN
TAF
KISN 031125Z 0312/0412 35008KT P6SM SCT150
     FM032100 34012KT P6SM SCT080
     FM040300 36014KT P6SM SCT050 BKN080
     FM040700 01012KT P6SM VCSH SCT035 BKN050 OVC080=



000
FTUS43 KBIS 031125
TAFMOT
TAF
KMOT 031125Z 0312/0412 10006KT 2SM BR SKC
      TEMPO 0312/0313 1/4SM FG SCT005
     FM031500 14010KT P6SM SCT030
     FM031800 16013KT P6SM FEW120
     FM040300 VRB05KT P6SM SCT080
     FM040800 34008KT P6SM VCSH SCT050 BKN080=



000
FTUS43 KBIS 031125
TAFDIK
TAF
KDIK 031125Z 0312/0412 16008KT P6SM SKC
     FM031800 21010KT P6SM SKC
     FM040000 33007KT P6SM SCT080
     FM040300 03009KT P6SM VCSH SCT050 BKN080=



000
FTUS43 KBIS 031125
TAFBIS
TAF
KBIS 031125Z 0312/0412 10005KT 4SM BR SKC
      TEMPO 0312/0314 2SM BR SCT006
     FM031500 14008KT P6SM SKC
     FM031800 17013KT P6SM SKC
     FM040300 14008KT P6SM SCT080=



000
FTUS43 KBIS 031125
TAFMOT
TAF
KMOT 031125Z 0312/0412 10006KT 2SM BR SKC
      TEMPO 0312/0313 1/4SM FG SCT005
     FM031500 14010KT P6SM SCT030
     FM031800 16013KT P6SM FEW120
     FM040300 VRB05KT P6SM SCT080
     FM040800 34008KT P6SM VCSH SCT050 BKN080=



000
FTUS43 KBIS 031125
TAFDIK
TAF
KDIK 031125Z 0312/0412 16008KT P6SM SKC
     FM031800 21010KT P6SM SKC
     FM040000 33007KT P6SM SCT080
     FM040300 03009KT P6SM VCSH SCT050 BKN080=



000
FTUS43 KBIS 031125
TAFISN
TAF
KISN 031125Z 0312/0412 35008KT P6SM SCT150
     FM032100 34012KT P6SM SCT080
     FM040300 36014KT P6SM SCT050 BKN080
     FM040700 01012KT P6SM VCSH SCT035 BKN050 OVC080=



000
FTUS43 KBIS 031125
TAFJMS
TAF
KJMS 031125Z 0312/0412 14012KT 4SM BR OVC005
      TEMPO 0312/0314 2SM BR OVC003
     FM031500 15012KT P6SM SCT012
     FM031800 17016KT P6SM SKC
     FM040300 15010KT P6SM SCT080
     FM040800 14007KT 5SM BR SCT010=



000
FTUS43 KBIS 031106 AAA
TAFMOT
TAF AMD
KMOT 031106Z 0311/0406 13006KT P6SM FEW120
      TEMPO 0311/0314 1/4SM FG
     FM031800 16013KT P6SM FEW120
     FM040300 VRB05KT P6SM SCT080=



000
FTUS43 KBIS 031106 AAA
TAFMOT
TAF AMD
KMOT 031106Z 0311/0406 13006KT P6SM FEW120
      TEMPO 0311/0314 1/4SM FG
     FM031800 16013KT P6SM FEW120
     FM040300 VRB05KT P6SM SCT080=



000
FTUS43 KBIS 030639 AAB
TAFJMS
TAF AMD
KJMS 030639Z 0307/0406 14012KT 4SM BR BKN007
      TEMPO 0307/0310 2SM BR OVC006
     FM031000 14010KT 3SM BR OVC005
      TEMPO 0310/0314 1SM BR OVC004
     FM031500 15012KT 5SM BR SCT012
     FM031800 17016KT P6SM SKC
     FM040300 15010KT P6SM SCT080=



000
FTUS43 KBIS 030616 AAA
TAFJMS
TAF AMD
KJMS 030616Z 0306/0406 14012KT 4SM BR SKC
      TEMPO 0306/0310 2SM BR SCT020
     FM031000 14010KT 3SM BR SCT020
      TEMPO 0310/0314 1SM BR BKN020
     FM031800 17016KT P6SM SKC
     FM040300 15010KT P6SM SCT080=



000
FTUS43 KBIS 030616 AAA
TAFJMS
TAF AMD
KJMS 030616Z 0306/0406 14012KT 4SM BR SKC
      TEMPO 0306/0310 2SM BR SCT020
     FM031000 14010KT 3SM BR SCT020
      TEMPO 0310/0314 1SM BR BKN020
     FM031800 17016KT P6SM SKC
     FM040300 15010KT P6SM SCT080=



000
FTUS43 KBIS 030530
TAFBIS
TAF
KBIS 030530Z 0306/0406 15005KT P6SM FEW250
      TEMPO 0310/0314 3SM BR SCT020
     FM031800 17013KT P6SM SKC
     FM040300 14008KT P6SM SCT080=



000
FTUS43 KBIS 030530
TAFJMS
TAF
KJMS 030530Z 0306/0406 14012KT P6SM SKC
      TEMPO 0310/0314 3SM BR SCT020
     FM031800 17016KT P6SM SKC
     FM040300 15010KT P6SM SCT080=



000
FTUS43 KBIS 030530
TAFISN
TAF
KISN 030530Z 0306/0406 VRB03KT P6SM SCT150
     FM031500 03006KT P6SM FEW250
     FM031800 36010KT P6SM SKC
     FM032100 34012KT P6SM SCT080
     FM040300 36014KT P6SM SCT050 BKN080=



000
FTUS43 KBIS 030530
TAFDIK
TAF
KDIK 030530Z 0306/0406 16008KT P6SM SCT150
     FM031800 20010KT P6SM SCT150
     FM040300 VRB05KT P6SM SCT080=



000
FTUS43 KBIS 030530
TAFMOT
TAF
KMOT 030530Z 0306/0406 13006KT P6SM FEW120
      TEMPO 0310/0314 3SM BR
     FM031800 16013KT P6SM FEW120
     FM040300 VRB05KT P6SM SCT080=



000
FTUS43 KBIS 030530
TAFBIS
TAF
KBIS 030530Z 0306/0406 15005KT P6SM FEW250
      TEMPO 0310/0314 3SM BR SCT020
     FM031800 17013KT P6SM SKC
     FM040300 14008KT P6SM SCT080=



000
FTUS43 KBIS 030530
TAFDIK
TAF
KDIK 030530Z 0306/0406 16008KT P6SM SCT150
     FM031800 20010KT P6SM SCT150
     FM040300 VRB05KT P6SM SCT080=



000
FTUS43 KBIS 030530
TAFISN
TAF
KISN 030530Z 0306/0406 VRB03KT P6SM SCT150
     FM031500 03006KT P6SM FEW250
     FM031800 36010KT P6SM SKC
     FM032100 34012KT P6SM SCT080
     FM040300 36014KT P6SM SCT050 BKN080=



000
FTUS43 KBIS 030530
TAFJMS
TAF
KJMS 030530Z 0306/0406 14012KT P6SM SKC
      TEMPO 0310/0314 3SM BR SCT020
     FM031800 17016KT P6SM SKC
     FM040300 15010KT P6SM SCT080=



000
FTUS43 KBIS 022335
TAFBIS
TAF
KBIS 022335Z 0300/0324 15007KT P6SM FEW250
     FM031200 11004KT 5SM BR SCT020
     FM031500 13013KT P6SM SKC=



000
FTUS43 KBIS 022335
TAFISN
TAF
KISN 022335Z 0300/0324 22007KT P6SM SCT150
     FM031600 13011KT P6SM FEW250=



000
FTUS43 KBIS 022335
TAFDIK
TAF
KDIK 022335Z 0300/0324 16008KT P6SM SCT150
     FM031600 18010KT P6SM SCT150=



000
FTUS43 KBIS 022335
TAFMOT
TAF
KMOT 022335Z 0300/0324 14009KT P6SM FEW120
     FM031500 14011KT P6SM FEW120=



000
FTUS43 KBIS 022335
TAFJMS
TAF
KJMS 022335Z 0300/0324 14015KT P6SM SKC
     FM030200 14007KT P6SM SKC
     FM031100 14006KT 5SM BR SCT020
     FM031500 15015KT P6SM SKC=



000
FTUS43 KBIS 022335
TAFDIK
TAF
KDIK 022335Z 0300/0324 16008KT P6SM SCT150
     FM031600 18010KT P6SM SCT150=



000
FTUS43 KBIS 022335
TAFISN
TAF
KISN 022335Z 0300/0324 22007KT P6SM SCT150
     FM031600 13011KT P6SM FEW250=



000
FTUS43 KBIS 022335
TAFMOT
TAF
KMOT 022335Z 0300/0324 14009KT P6SM FEW120
     FM031500 14011KT P6SM FEW120=



000
FTUS43 KBIS 022335
TAFJMS
TAF
KJMS 022335Z 0300/0324 14015KT P6SM SKC
     FM030200 14007KT P6SM SKC
     FM031100 14006KT 5SM BR SCT020
     FM031500 15015KT P6SM SKC=



000
FTUS43 KBIS 022335
TAFBIS
TAF
KBIS 022335Z 0300/0324 15007KT P6SM FEW250
     FM031200 11004KT 5SM BR SCT020
     FM031500 13013KT P6SM SKC=



000
FTUS43 KBIS 022232 AAB
TAFJMS
TAF AMD
KJMS 022232Z 0223/0318 12014KT P6SM SKC
     FM030100 14008KT P6SM SKC
     FM031200 14006KT 5SM BR SCT150=



000
FTUS43 KBIS 022232 AAA
TAFMOT
TAF AMD
KMOT 022232Z 0223/0318 14012G19KT P6SM FEW250
     FM030200 16008KT P6SM FEW250=



000
FTUS43 KBIS 022057 AAA
TAFISN
TAF AMD
KISN 022057Z 0221/0318 22011KT P6SM SKC
     FM030100 23009KT P6SM FEW250
     FM031400 01006KT P6SM FEW250=



000
FTUS43 KBIS 022055 AAA
TAFJMS
TAF AMD
KJMS 022055Z 0221/0318 12013G25KT P6SM SKC
     FM030100 14008KT P6SM SKC
     FM031200 14006KT 5SM BR SCT150=



000
FTUS43 KBIS 021731
TAFBIS
TAF
KBIS 021731Z 0218/0318 13009KT P6SM SCT090
     FM030300 13006KT P6SM FEW250
     FM031200 11005KT 5SM BR FEW020=



000
FTUS43 KBIS 021731
TAFDIK
TAF
KDIK 021731Z 0218/0318 17012G19KT P6SM SCT250
     FM030000 17008KT P6SM FEW250
     FM031700 24009KT P6SM FEW250=



000
FTUS43 KBIS 021731
TAFJMS
TAF
KJMS 021731Z 0218/0318 15010KT P6SM FEW250
     FM031300 14012KT P6SM SCT150=



000
FTUS43 KBIS 021731
TAFMOT
TAF
KMOT 021731Z 0218/0318 16012G19KT P6SM FEW250
     FM030200 16008KT P6SM FEW250=



000
FTUS43 KBIS 021731
TAFISN
TAF
KISN 021731Z 0218/0318 15013G20KT P6SM SCT250
     FM022300 20009KT P6SM FEW250
     FM031400 01006KT P6SM FEW250=



000
FTUS43 KBIS 021731
TAFJMS
TAF
KJMS 021731Z 0218/0318 15010KT P6SM FEW250
     FM031300 14012KT P6SM SCT150=



000
FTUS43 KBIS 021731
TAFISN
TAF
KISN 021731Z 0218/0318 15013G20KT P6SM SCT250
     FM022300 20009KT P6SM FEW250
     FM031400 01006KT P6SM FEW250=



000
FTUS43 KBIS 021731
TAFDIK
TAF
KDIK 021731Z 0218/0318 17012G19KT P6SM SCT250
     FM030000 17008KT P6SM FEW250
     FM031700 24009KT P6SM FEW250=



000
FTUS43 KBIS 021731
TAFMOT
TAF
KMOT 021731Z 0218/0318 16012G19KT P6SM FEW250
     FM030200 16008KT P6SM FEW250=



000
FTUS43 KBIS 021731
TAFBIS
TAF
KBIS 021731Z 0218/0318 13009KT P6SM SCT090
     FM030300 13006KT P6SM FEW250
     FM031200 11005KT 5SM BR FEW020=



000
FTUS43 KBIS 021445 AAE
TAFBIS
TAF AMD
KBIS 021445Z 0215/0312 05004KT 1SM BR VV002
     FM021530 06004KT 4SM BR BKN005
     FM021600 08005KT P6SM SCT010
     FM021800 14007KT P6SM SCT070=



000
FTUS43 KBIS 021404 AAD
TAFBIS
TAF AMD
KBIS 021404Z 0214/0312 07003KT 1/4SM FG VV002
      TEMPO 0214/0215 2SM BR
     FM021500 14007KT P6SM SCT080=



000
FTUS43 KBIS 021404 AAD
TAFBIS
TAF AMD
KBIS 021404Z 0214/0312 07003KT 1/4SM FG VV002
      TEMPO 0214/0215 2SM BR
     FM021500 14007KT P6SM SCT080=



000
FTUS43 KBIS 021319 AAC
TAFBIS
TAF AMD
KBIS 021319Z 0213/0312 07003KT 1/4SM FG VV002
      TEMPO 0213/0214 2SM BR
     FM021400 14007KT P6SM SCT080=



000
FTUS43 KBIS 021240 AAB
TAFMOT
TAF AMD
KMOT 021240Z 0213/0312 13005KT 0SM FG VV002
      TEMPO 0213/0214 2SM BR
     FM021400 16004KT P6SM SKC
     FM021800 15012G20KT P6SM SKC
     FM030100 16007KT P6SM SKC=



000
FTUS43 KBIS 021206 AAA
TAFJMS
TAF AMD
KJMS 021206Z 0212/0312 15005KT P6SM FEW100
      TEMPO 0212/0214 3SM BR
     FM021800 15010G18KT P6SM SKC
     FM022300 15007KT P6SM SCT100=



000
FTUS43 KBIS 021206 AAA
TAFJMS
TAF AMD
KJMS 021206Z 0212/0312 15005KT P6SM FEW100
      TEMPO 0212/0214 3SM BR
     FM021800 15010G18KT P6SM SKC
     FM022300 15007KT P6SM SCT100=



000
FTUS43 KBIS 021159 AAA
TAFMOT
TAF AMD
KMOT 021159Z 0212/0312 16004KT 5SM BR SKC
      TEMPO 0212/0214 2SM BR
     FM021400 16004KT P6SM SKC
     FM021800 15012G20KT P6SM SKC
     FM030100 16007KT P6SM SKC=



000
FTUS43 KBIS 021159 AAA
TAFMOT
TAF AMD
KMOT 021159Z 0212/0312 16004KT 5SM BR SKC
      TEMPO 0212/0214 2SM BR
     FM021400 16004KT P6SM SKC
     FM021800 15012G20KT P6SM SKC
     FM030100 16007KT P6SM SKC=



000
FTUS43 KBIS 021123
TAFISN
TAF
KISN 021123Z 0212/0312 09007KT P6SM SKC
     FM021600 16013G22KT P6SM SKC
     FM022200 19008KT P6SM FEW100=



000
FTUS43 KBIS 021123
TAFJMS
TAF
KJMS 021123Z 0212/0312 15005KT P6SM FEW100
     FM021800 15010G18KT P6SM SKC
     FM022300 15007KT P6SM SCT100=



000
FTUS43 KBIS 021123
TAFDIK
TAF
KDIK 021123Z 0212/0312 15007KT P6SM FEW100
     FM021600 16012G20KT P6SM SKC
     FM022300 16008KT P6SM SKC=



000
FTUS43 KBIS 021123
TAFMOT
TAF
KMOT 021123Z 0212/0312 16004KT P6SM SKC
      TEMPO 0212/0214 6SM BR
     FM021800 15012G20KT P6SM SKC
     FM030100 16007KT P6SM SKC=



000
FTUS43 KBIS 021123
TAFBIS
TAF
KBIS 021123Z 0212/0312 14007KT P6SM SKC
      TEMPO 0212/0214 5SM BR=



000
FTUS43 KBIS 021123
TAFJMS
TAF
KJMS 021123Z 0212/0312 15005KT P6SM FEW100
     FM021800 15010G18KT P6SM SKC
     FM022300 15007KT P6SM SCT100=



000
FTUS43 KBIS 021123
TAFISN
TAF
KISN 021123Z 0212/0312 09007KT P6SM SKC
     FM021600 16013G22KT P6SM SKC
     FM022200 19008KT P6SM FEW100=



000
FTUS43 KBIS 021123
TAFDIK
TAF
KDIK 021123Z 0212/0312 15007KT P6SM FEW100
     FM021600 16012G20KT P6SM SKC
     FM022300 16008KT P6SM SKC=



000
FTUS43 KBIS 021123
TAFBIS
TAF
KBIS 021123Z 0212/0312 14007KT P6SM SKC
      TEMPO 0212/0214 5SM BR=



000
FTUS43 KBIS 021123
TAFMOT
TAF
KMOT 021123Z 0212/0312 16004KT P6SM SKC
      TEMPO 0212/0214 6SM BR
     FM021800 15012G20KT P6SM SKC
     FM030100 16007KT P6SM SKC=



000
FTUS43 KBIS 020905 AAC
TAFBIS
TAF AMD
KBIS 020905Z 0209/0306 08005KT P6SM SKC
     FM021600 13010KT P6SM SKC=



000
FTUS43 KBIS 020905 AAC
TAFBIS
TAF AMD
KBIS 020905Z 0209/0306 08005KT P6SM SKC
     FM021600 13010KT P6SM SKC=



000
FTUS43 KBIS 020902 AAB
TAFJMS
TAF AMD
KJMS 020902Z 0209/0306 15005KT P6SM SKC
     FM021700 15012G20KT P6SM SKC
     FM022300 15009KT P6SM FEW100=



000
FTUS43 KBIS 020805 AAB
TAFBIS
TAF AMD
KBIS 020805Z 0208/0306 15004KT P6SM SKC
     FM020900 18004KT 6SM BR SKC
      TEMPO 0210/0213 1/2SM FG
     FM021600 13010KT P6SM SKC=



000
FTUS43 KBIS 020804 AAA
TAFJMS
TAF AMD
KJMS 020804Z 0208/0306 17007KT P6SM SKC
      TEMPO 0209/0213 1/2SM FG
     FM021700 15012G20KT P6SM SKC
     FM022300 15009KT P6SM FEW100=



000
FTUS43 KBIS 020520
TAFJMS
TAF
KJMS 020520Z 0206/0306 15005KT P6SM SKC
     FM020800 18004KT 3SM BR SKC
      TEMPO 0209/0213 1/2SM FG
     FM021700 15012G20KT P6SM SKC
     FM022300 15009KT P6SM FEW100=



000
FTUS43 KBIS 020520
TAFMOT
TAF
KMOT 020520Z 0206/0306 18005KT P6SM SKC
     FM021700 15014G23KT P6SM SKC
     FM030100 16008KT P6SM SKC=



000
FTUS43 KBIS 020520
TAFDIK
TAF
KDIK 020520Z 0206/0306 16005KT P6SM SKC
     FM021600 16014G23KT P6SM SKC
     FM022300 16010KT P6SM SKC=



000
FTUS43 KBIS 020520
TAFISN
TAF
KISN 020520Z 0206/0306 03004KT P6SM SKC
     FM021000 11006KT P6SM SKC
     FM021600 16013G22KT P6SM SKC=



000
FTUS43 KBIS 020520
TAFBIS
TAF
KBIS 020520Z 0206/0306 15004KT P6SM SKC
     FM020900 18004KT 3SM BR SKC
      TEMPO 0210/0213 1/2SM FG
     FM021600 13010KT P6SM SKC=



000
FTUS43 KBIS 020520
TAFJMS
TAF
KJMS 020520Z 0206/0306 15005KT P6SM SKC
     FM020800 18004KT 3SM BR SKC
      TEMPO 0209/0213 1/2SM FG
     FM021700 15012G20KT P6SM SKC
     FM022300 15009KT P6SM FEW100=



000
FTUS43 KBIS 020520
TAFDIK
TAF
KDIK 020520Z 0206/0306 16005KT P6SM SKC
     FM021600 16014G23KT P6SM SKC
     FM022300 16010KT P6SM SKC=



000
FTUS43 KBIS 020520
TAFMOT
TAF
KMOT 020520Z 0206/0306 18005KT P6SM SKC
     FM021700 15014G23KT P6SM SKC
     FM030100 16008KT P6SM SKC=



000
FTUS43 KBIS 020520
TAFISN
TAF
KISN 020520Z 0206/0306 03004KT P6SM SKC
     FM021000 11006KT P6SM SKC
     FM021600 16013G22KT P6SM SKC=



000
FTUS43 KBIS 020520
TAFBIS
TAF
KBIS 020520Z 0206/0306 15004KT P6SM SKC
     FM020900 18004KT 3SM BR SKC
      TEMPO 0210/0213 1/2SM FG
     FM021600 13010KT P6SM SKC=



    US Dept of Commerce
    National Oceanic and Atmospheric Administration
    National Weather Service
    1325 East West Highway
    Silver Spring, MD 20910
    Page Author: NWS Internet Services Team
Disclaimer
Information Quality
Credits
Glossary
Privacy Policy
Freedom of Information Act (FOIA)
About Us
Career Opportunities